createdAt,value
2023-03-17T11:34:35.972Z,55.00
2023-03-17T11:37:04.100Z,52.00
2023-03-17T11:40:13.342Z,52.70
2023-03-17T11:43:20.347Z,51.40
2023-03-17T11:46:14.314Z,51.80
2023-03-17T11:49:02.951Z,51.60
2023-03-17T11:51:54.810Z,50.40
2023-03-17T11:54:28.065Z,49.00
2023-03-17T11:57:02.365Z,50.50
2023-03-17T11:59:52.349Z,50.70
2023-03-17T12:02:29.007Z,51.20
2023-03-17T12:05:06.957Z,49.80
2023-03-17T12:07:53.387Z,49.60
2023-03-17T12:10:28.813Z,49.30
2023-03-17T12:13:17.058Z,50.00
2023-03-17T12:15:53.247Z,48.40
2023-03-17T12:18:43.733Z,46.70
2023-03-17T12:21:50.368Z,46.20
2023-03-17T12:24:24.069Z,47.60
2023-03-17T12:27:01.049Z,46.70
2023-03-17T12:29:43.393Z,46.70
2023-03-17T12:32:44.577Z,45.80
2023-03-17T12:35:33.408Z,45.70
2023-03-17T12:38:08.218Z,46.20
2023-03-17T12:41:07.990Z,46.20
2023-03-17T12:44:00.353Z,46.20
2023-03-17T12:46:43.618Z,45.10
2023-03-17T12:49:29.813Z,46.40
2023-03-17T12:52:07.677Z,45.90
2023-03-17T12:54:37.614Z,45.50
2023-03-17T12:57:20.363Z,44.40
2023-03-17T12:59:56.634Z,44.40
2023-03-17T13:02:29.874Z,45.80
2023-03-17T13:05:03.251Z,45.00
2023-03-17T13:07:38.165Z,46.10
2023-03-17T13:10:21.545Z,44.60
2023-03-17T13:12:48.905Z,46.40
2023-03-17T13:15:48.438Z,45.30
2023-03-17T13:18:15.865Z,44.00
2023-03-17T13:20:44.866Z,44.30
2023-03-17T13:23:18.017Z,43.70
2023-03-17T13:25:53.906Z,44.90
2023-03-17T13:28:43.014Z,43.80
2023-03-17T13:31:31.981Z,43.40
2023-03-17T13:34:18.032Z,43.70
2023-03-17T13:37:01.506Z,43.30
2023-03-17T13:39:49.012Z,44.10
2023-03-17T13:42:23.394Z,43.20
2023-03-17T13:45:08.245Z,45.10
2023-03-17T13:47:42.345Z,44.70
2023-03-17T13:50:30.983Z,45.30
2023-03-17T13:53:02.768Z,43.90
2023-03-17T13:55:36.422Z,43.70
2023-03-17T13:58:11.895Z,43.00
2023-03-17T14:00:41.780Z,45.20
2023-03-17T14:03:35.457Z,44.10
2023-03-17T14:06:06.762Z,44.20
2023-03-17T14:08:35.891Z,44.30
2023-03-17T14:11:22.833Z,46.10
2023-03-17T14:14:04.650Z,49.60
2023-03-17T14:16:57.671Z,49.80
2023-03-17T14:19:28.341Z,48.60
2023-03-17T14:22:02.170Z,50.90
2023-03-17T14:24:32.893Z,48.20
2023-03-17T14:27:08.582Z,47.70
2023-03-17T14:29:37.329Z,50.10
2023-03-17T14:32:16.862Z,48.60
2023-03-17T14:34:54.596Z,49.30
2023-03-17T14:37:23.148Z,50.10
2023-03-17T14:39:57.777Z,51.10
2023-03-17T14:42:30.656Z,50.50
2023-03-17T14:45:04.872Z,50.30
2023-03-17T14:47:42.076Z,51.60
2023-03-17T14:50:18.663Z,49.60
2023-03-17T14:52:46.099Z,50.50
2023-03-17T14:55:16.077Z,50.00
2023-03-17T14:57:49.380Z,49.80
2023-03-17T15:00:32.218Z,49.20
2023-03-17T15:03:03.441Z,50.10
2023-03-17T15:05:41.183Z,50.10
2023-03-17T15:08:41.511Z,51.20
2023-03-17T15:11:16.464Z,51.40
2023-03-17T15:13:44.516Z,51.30
2023-03-17T15:16:21.276Z,52.20
2023-03-17T15:18:53.199Z,49.60
2023-03-17T15:21:33.618Z,50.30
2023-03-17T15:24:06.589Z,50.10
2023-03-17T15:26:37.196Z,51.20
2023-03-17T15:29:05.285Z,50.00
2023-03-17T15:31:32.583Z,51.20
2023-03-17T15:33:59.916Z,49.50
2023-03-17T15:36:32.602Z,49.90
2023-03-17T15:39:02.378Z,49.00
2023-03-17T15:41:29.672Z,49.90
2023-03-17T15:43:57.351Z,49.60
2023-03-17T15:46:31.753Z,49.90
2023-03-17T15:48:59.490Z,49.70
2023-03-17T15:51:27.148Z,48.60
2023-03-17T15:53:54.520Z,49.30
2023-03-17T15:56:22.257Z,50.20
2023-03-17T15:58:52.516Z,50.10
2023-03-17T16:01:20.958Z,51.20
2023-03-17T16:03:49.027Z,50.60
2023-03-17T16:06:22.634Z,50.60
2023-03-17T16:08:51.080Z,50.20
2023-03-17T16:11:28.593Z,50.50
2023-03-17T16:13:58.284Z,51.10
2023-03-17T16:16:41.590Z,51.30
2023-03-17T16:19:18.948Z,50.40
2023-03-17T16:21:47.286Z,50.20
2023-03-17T16:24:20.022Z,50.90
2023-03-17T16:26:47.742Z,52.00
2023-03-17T16:29:16.436Z,52.40
2023-03-17T16:31:49.007Z,50.80
2023-03-17T16:34:18.960Z,51.80
2023-03-17T16:36:46.581Z,53.30
2023-03-17T16:39:25.319Z,52.70
2023-03-17T16:41:54.284Z,53.90
2023-03-17T16:44:23.873Z,53.60
2023-03-17T16:46:51.618Z,54.40
2023-03-17T16:49:20.879Z,55.90
2023-03-17T16:51:49.544Z,54.40
2023-03-17T16:54:17.774Z,54.90
2023-03-17T16:56:45.692Z,56.20
2023-03-17T16:59:24.566Z,55.20
2023-03-17T17:01:55.172Z,55.00
2023-03-17T17:04:23.923Z,55.10
2023-03-17T17:06:51.239Z,55.30
2023-03-17T17:09:19.495Z,55.60
2023-03-17T17:11:47.015Z,55.70
2023-03-17T17:14:14.277Z,56.30
2023-03-17T17:16:41.902Z,54.90
2023-03-17T17:19:17.320Z,55.40
2023-03-17T17:21:46.171Z,56.90
2023-03-17T17:24:15.985Z,56.00
2023-03-17T17:26:43.376Z,55.40
2023-03-17T17:29:10.547Z,55.80
2023-03-17T17:31:38.076Z,56.40
2023-03-17T17:34:05.468Z,56.20
2023-03-17T17:36:33.144Z,55.60
2023-03-17T17:39:00.717Z,57.10
2023-03-17T17:41:28.074Z,56.50
2023-03-17T17:43:56.236Z,56.20
2023-03-17T17:46:24.016Z,57.00
2023-03-17T17:48:51.826Z,56.50
2023-03-17T17:51:19.099Z,57.40
2023-03-17T17:53:46.180Z,56.90
2023-03-17T17:56:17.911Z,57.70
2023-03-17T17:58:46.638Z,57.40
2023-03-17T18:01:17.033Z,57.80
2023-03-17T18:03:44.581Z,57.30
2023-03-17T18:06:13.343Z,58.20
2023-03-17T18:08:41.591Z,58.00
2023-03-17T18:11:08.953Z,57.70
2023-03-17T18:13:39.198Z,58.00
2023-03-17T18:16:10.246Z,58.70
2023-03-17T18:18:40.731Z,58.20
2023-03-17T18:21:08.330Z,58.70
2023-03-17T18:23:36.735Z,58.00
2023-03-17T18:26:06.324Z,59.20
2023-03-17T18:28:34.487Z,58.80
2023-03-17T18:31:10.688Z,58.70
2023-03-17T18:33:40.466Z,59.20
2023-03-17T18:36:09.082Z,58.70
2023-03-17T18:38:37.535Z,59.40
2023-03-17T18:41:08.380Z,60.50
2023-03-17T18:43:35.782Z,60.10
2023-03-17T18:46:03.083Z,59.90
2023-03-17T18:48:31.116Z,59.70
2023-03-17T18:50:58.301Z,60.10
2023-03-17T18:53:25.574Z,60.00
2023-03-17T18:55:52.851Z,61.40
2023-03-17T18:58:20.294Z,60.10
2023-03-17T19:00:49.413Z,61.20
2023-03-17T19:03:17.649Z,60.60
2023-03-17T19:05:44.835Z,60.60
2023-03-17T19:08:14.326Z,61.90
2023-03-17T19:10:44.380Z,61.10
2023-03-17T19:13:11.863Z,61.50
2023-03-17T19:15:39.299Z,61.70
2023-03-17T19:18:07.057Z,61.70
2023-03-17T19:20:36.418Z,62.60
2023-03-17T19:23:04.971Z,62.90
2023-03-17T19:25:32.135Z,62.80
2023-03-17T19:27:59.432Z,63.30
2023-03-17T19:30:27.453Z,62.90
2023-03-17T19:32:54.665Z,62.20
2023-03-17T19:35:22.407Z,62.30
2023-03-17T19:37:49.614Z,63.40
2023-03-17T19:40:17.287Z,63.80
2023-03-17T19:42:44.453Z,64.00
2023-03-17T19:45:12.103Z,62.90
2023-03-17T19:47:39.502Z,63.20
2023-03-17T19:50:07.516Z,62.90
2023-03-17T19:52:35.793Z,64.00
2023-03-17T19:55:04.866Z,64.20
2023-03-17T19:57:33.747Z,63.20
2023-03-17T20:00:00.989Z,63.20
2023-03-17T20:02:28.446Z,63.90
2023-03-17T20:04:55.763Z,63.80
2023-03-17T20:07:23.053Z,64.10
2023-03-17T20:09:50.440Z,65.30
2023-03-17T20:12:17.673Z,64.10
2023-03-17T20:14:45.142Z,64.50
2023-03-17T20:17:13.962Z,63.80
2023-03-17T20:19:41.108Z,64.30
2023-03-17T20:22:08.912Z,64.50
2023-03-17T20:24:36.790Z,64.00
2023-03-17T20:27:05.663Z,64.90
2023-03-17T20:29:33.621Z,64.80
2023-03-17T20:32:02.652Z,64.50
2023-03-17T20:34:29.881Z,64.60
2023-03-17T20:36:57.774Z,64.50
2023-03-17T20:39:25.520Z,65.40
2023-03-17T20:41:52.727Z,65.30
2023-03-17T20:44:21.350Z,65.30
2023-03-17T20:46:48.754Z,65.90
2023-03-17T20:49:17.460Z,65.50
2023-03-17T20:51:44.625Z,66.10
2023-03-17T20:54:13.015Z,66.50
2023-03-17T20:56:40.729Z,65.50
2023-03-17T20:59:10.039Z,66.10
2023-03-17T21:01:38.863Z,66.40
2023-03-17T21:04:09.360Z,66.40
2023-03-17T21:06:38.661Z,65.40
2023-03-17T21:09:06.064Z,65.60
2023-03-17T21:11:33.764Z,64.90
2023-03-17T21:14:03.483Z,65.00
2023-03-17T21:16:31.320Z,65.60
2023-03-17T21:19:00.345Z,65.30
2023-03-17T21:21:28.675Z,65.20
2023-03-17T21:23:56.375Z,66.30
2023-03-17T21:26:24.834Z,65.10
2023-03-17T21:28:52.838Z,65.80
2023-03-17T21:31:20.262Z,65.80
2023-03-17T21:33:50.889Z,65.20
2023-03-17T21:36:18.796Z,65.90
2023-03-17T21:38:45.884Z,65.80
2023-03-17T21:41:32.473Z,65.60
2023-03-17T21:44:01.546Z,65.60
2023-03-17T21:46:29.692Z,65.80
2023-03-17T21:48:57.190Z,65.60
2023-03-17T21:51:25.644Z,65.70
2023-03-17T21:53:53.959Z,65.40
2023-03-17T21:56:21.456Z,65.70
2023-03-17T21:58:49.443Z,66.30
2023-03-17T22:01:18.705Z,66.20
2023-03-17T22:03:46.090Z,66.20
2023-03-17T22:06:16.480Z,65.70
2023-03-17T22:08:44.621Z,66.20
2023-03-17T22:11:15.613Z,66.20
2023-03-17T22:13:43.699Z,67.00
2023-03-17T22:16:12.630Z,66.50
2023-03-17T22:18:39.892Z,66.30
2023-03-17T22:21:08.569Z,66.40
2023-03-17T22:23:41.435Z,66.10
2023-03-17T22:26:14.521Z,67.20
2023-03-17T22:28:43.769Z,67.60
2023-03-17T22:31:17.130Z,67.80
2023-03-17T22:33:45.363Z,67.10
2023-03-17T22:36:13.108Z,67.00
2023-03-17T22:38:40.643Z,67.60
2023-03-17T22:41:14.893Z,67.50
2023-03-17T22:43:42.622Z,67.30
2023-03-17T22:46:11.479Z,66.90
2023-03-17T22:48:40.384Z,67.80
2023-03-17T22:51:14.130Z,67.30
2023-03-17T22:53:41.372Z,67.30
2023-03-17T22:56:11.047Z,67.40
2023-03-17T22:58:39.060Z,67.80
2023-03-17T23:01:07.923Z,67.90
2023-03-17T23:03:35.744Z,67.50
2023-03-17T23:06:05.058Z,68.40
2023-03-17T23:08:35.488Z,68.00
2023-03-17T23:11:07.268Z,68.20
2023-03-17T23:13:35.758Z,68.50
2023-03-17T23:16:05.019Z,69.30
2023-03-17T23:18:32.480Z,68.90
2023-03-17T23:21:00.959Z,68.10
2023-03-17T23:23:29.023Z,68.20
2023-03-17T23:25:56.390Z,68.60
2023-03-17T23:28:24.570Z,68.10
2023-03-17T23:30:53.042Z,68.20
2023-03-17T23:33:21.872Z,68.30
2023-03-17T23:35:51.573Z,68.50
2023-03-17T23:38:21.697Z,68.20
2023-03-17T23:40:50.320Z,67.60
2023-03-17T23:43:17.906Z,68.40
2023-03-17T23:45:45.906Z,68.50
2023-03-17T23:48:13.256Z,67.80
2023-03-17T23:50:42.513Z,68.60
2023-03-17T23:53:11.643Z,68.50
2023-03-17T23:55:40.404Z,68.00
2023-03-17T23:58:07.986Z,68.10
